createdAt,value
2022-08-02T00:02:22.938Z,14.94
2022-08-02T00:06:27.522Z,14.85
2022-08-02T00:10:31.012Z,14.95
2022-08-02T00:14:34.382Z,15.09
2022-08-02T00:18:37.380Z,14.98
2022-08-02T00:22:41.814Z,15.00
2022-08-02T00:26:44.819Z,15.06
2022-08-02T00:30:47.912Z,15.41
2022-08-02T00:34:51.249Z,15.52
2022-08-02T00:38:55.607Z,15.54
2022-08-02T00:43:04.358Z,15.43
2022-08-02T00:47:07.527Z,15.36
2022-08-02T00:51:10.552Z,15.44
2022-08-02T00:55:17.446Z,15.28
2022-08-02T00:59:21.845Z,15.14
2022-08-02T01:03:25.029Z,15.06
2022-08-02T01:07:28.254Z,15.03
2022-08-02T01:11:33.139Z,15.03
2022-08-02T01:15:41.865Z,14.95
2022-08-02T01:19:52.963Z,14.98
2022-08-02T01:24:05.286Z,14.95
2022-08-02T01:28:27.851Z,14.80
2022-08-02T01:32:35.180Z,14.93
2022-08-02T01:36:42.793Z,15.11
2022-08-02T01:40:47.930Z,15.02
2022-08-02T01:44:54.408Z,15.27
2022-08-02T01:48:59.592Z,15.09
2022-08-02T01:53:08.183Z,15.11
2022-08-02T01:57:14.256Z,14.93
2022-08-02T02:01:24.807Z,14.82
2022-08-02T02:05:30.669Z,14.68
2022-08-02T02:09:50.197Z,14.56
2022-08-02T02:13:54.292Z,14.47
2022-08-02T02:18:12.529Z,14.34
2022-08-02T02:22:16.972Z,14.46
2022-08-02T02:26:29.803Z,14.27
2022-08-02T02:30:36.737Z,14.21
2022-08-02T02:34:44.992Z,14.16
2022-08-02T02:38:49.435Z,14.15
2022-08-02T02:42:53.337Z,14.13
2022-08-02T02:46:57.179Z,14.08
2022-08-02T02:56:55.758Z,14.29
2022-08-02T03:01:16.638Z,14.23
2022-08-02T03:05:19.717Z,14.20
2022-08-02T03:09:22.782Z,14.18
2022-08-02T03:13:33.264Z,14.12
2022-08-02T03:17:45.433Z,14.22
2022-08-02T03:21:57.393Z,14.23
2022-08-02T03:26:01.340Z,14.18
2022-08-02T03:30:08.547Z,14.12
2022-08-02T03:34:11.746Z,13.87
2022-08-02T03:38:17.146Z,13.77
2022-08-02T03:42:20.885Z,13.76
2022-08-02T03:46:26.213Z,13.95
2022-08-02T03:50:29.539Z,13.88
2022-08-02T03:54:33.016Z,13.85
2022-08-02T03:58:37.977Z,14.00
2022-08-02T04:02:42.855Z,13.99
2022-08-02T04:06:45.911Z,13.92
2022-08-02T04:11:06.921Z,13.90
2022-08-02T04:15:12.183Z,14.00
2022-08-02T04:19:23.073Z,14.05
2022-08-02T04:23:28.223Z,14.03
2022-08-02T04:27:50.478Z,14.14
2022-08-02T04:32:00.595Z,14.16
2022-08-02T04:36:07.100Z,14.38
2022-08-02T04:40:11.833Z,14.57
2022-08-02T04:44:15.822Z,14.71
2022-08-02T04:48:22.348Z,14.90
2022-08-02T04:52:27.488Z,15.07
2022-08-02T04:56:31.359Z,15.33
2022-08-02T05:00:35.377Z,15.61
2022-08-02T05:04:39.008Z,15.93
2022-08-02T05:08:43.855Z,16.10
2022-08-02T05:12:46.971Z,16.29
2022-08-02T05:16:50.284Z,16.47
2022-08-02T05:20:58.038Z,16.64
2022-08-02T05:25:02.659Z,16.84
2022-08-02T05:29:06.272Z,16.90
2022-08-02T05:33:09.526Z,17.05
2022-08-02T05:37:12.728Z,17.09
2022-08-02T05:41:18.174Z,17.11
2022-08-02T05:45:21.186Z,17.20
2022-08-02T05:49:24.416Z,17.28
2022-08-02T05:53:36.786Z,17.47
2022-08-02T05:57:48.857Z,17.65
2022-08-02T06:01:57.683Z,17.80
2022-08-02T06:06:06.459Z,18.11
2022-08-02T06:10:13.326Z,18.32
2022-08-02T06:14:18.190Z,18.58
2022-08-02T06:18:27.800Z,18.80
2022-08-02T06:22:36.914Z,18.99
2022-08-02T06:26:44.123Z,19.19
2022-08-02T06:30:48.704Z,19.40
2022-08-02T06:34:51.775Z,19.65
2022-08-02T06:39:00.549Z,19.83
2022-08-02T06:43:14.179Z,20.00
2022-08-02T06:47:18.639Z,20.20
2022-08-02T06:51:22.068Z,20.41
2022-08-02T06:55:25.127Z,20.69
2022-08-02T06:59:28.194Z,20.97
2022-08-02T07:03:32.553Z,21.06
2022-08-02T07:07:36.081Z,21.19
2022-08-02T07:11:39.178Z,21.39
2022-08-02T07:15:45.753Z,21.61
2022-08-02T07:19:53.666Z,21.82
2022-08-02T07:23:56.675Z,22.05
2022-08-02T07:27:59.771Z,22.30
2022-08-02T07:32:04.416Z,22.37
2022-08-02T07:36:21.584Z,22.48
2022-08-02T07:40:27.056Z,22.66
2022-08-02T07:44:34.727Z,22.79
2022-08-02T07:48:37.767Z,23.03
2022-08-02T07:52:43.214Z,22.85
2022-08-02T07:56:46.276Z,23.15
2022-08-02T08:00:53.825Z,23.24
2022-08-02T08:04:56.858Z,23.39
2022-08-02T08:09:01.273Z,23.67
2022-08-02T08:13:04.383Z,23.94
2022-08-02T08:17:08.506Z,24.61
2022-08-02T08:21:11.930Z,25.88
2022-08-02T08:25:17.035Z,25.42
2022-08-02T08:29:20.509Z,25.52
2022-08-02T08:33:23.543Z,25.86
2022-08-02T08:37:27.419Z,26.05
2022-08-02T08:41:31.817Z,25.42
2022-08-02T08:45:34.950Z,26.13
2022-08-02T08:49:52.529Z,26.74
2022-08-02T08:54:00.300Z,26.74
2022-08-02T08:58:06.384Z,25.87
2022-08-02T09:02:17.233Z,26.02
2022-08-02T09:06:24.898Z,26.76
2022-08-02T09:10:40.094Z,27.05
2022-08-02T09:14:44.565Z,27.39
2022-08-02T09:18:47.771Z,28.12
2022-08-02T09:23:07.507Z,27.83
2022-08-02T09:27:14.941Z,27.86
2022-08-02T09:31:21.219Z,27.88
2022-08-02T09:36:06.717Z,28.57
2022-08-02T09:40:00.711Z,28.36
2022-08-02T09:44:06.707Z,27.94
2022-08-02T09:48:11.765Z,27.12
2022-08-02T09:52:15.593Z,26.64
2022-08-02T09:56:29.589Z,26.49
2022-08-02T10:00:53.601Z,26.50
2022-08-02T10:04:58.082Z,27.27
2022-08-02T10:09:01.206Z,27.79
2022-08-02T10:13:04.485Z,28.56
2022-08-02T10:17:08.809Z,29.55
2022-08-02T10:21:16.497Z,29.91
2022-08-02T10:25:21.514Z,29.21
2022-08-02T10:29:31.025Z,29.35
2022-08-02T10:33:56.905Z,28.97
2022-08-02T10:38:03.616Z,29.65
2022-08-02T10:42:06.957Z,28.94
2022-08-02T10:46:24.653Z,27.76
2022-08-02T10:50:56.133Z,27.93
2022-08-02T10:55:01.648Z,28.83
2022-08-02T10:59:26.706Z,29.43
2022-08-02T11:03:41.279Z,30.42
2022-08-02T11:07:47.517Z,29.45
2022-08-02T11:12:04.398Z,29.11
2022-08-02T11:16:11.611Z,28.77
2022-08-02T11:20:17.942Z,29.98
2022-08-02T11:24:30.039Z,29.60
2022-08-02T11:28:34.484Z,30.09
2022-08-02T11:32:37.735Z,29.78
2022-08-02T11:36:49.012Z,29.24
2022-08-02T11:40:57.234Z,28.93
2022-08-02T11:45:02.125Z,29.32
2022-08-02T11:49:16.295Z,28.26
2022-08-02T11:53:19.339Z,29.19
2022-08-02T11:57:23.608Z,29.81
2022-08-02T12:01:27.997Z,30.04
2022-08-02T12:06:05.228Z,29.01
2022-08-02T12:10:00.039Z,29.75
2022-08-02T12:14:03.821Z,30.52
2022-08-02T12:20:53.526Z,30.56
2022-08-02T12:24:57.922Z,29.85
2022-08-02T12:29:01.624Z,29.60
2022-08-02T12:33:13.320Z,29.89
2022-08-02T12:37:26.778Z,30.19
2022-08-02T12:41:32.628Z,30.76
2022-08-02T12:45:49.108Z,30.40
2022-08-02T12:50:13.445Z,31.04
2022-08-02T12:54:21.004Z,31.74
2022-08-02T12:58:50.045Z,31.78
2022-08-02T13:02:53.571Z,30.99
2022-08-02T13:06:56.622Z,32.26
2022-08-02T13:11:01.012Z,31.58
2022-08-02T13:15:04.616Z,31.69
2022-08-02T13:19:16.316Z,31.85
2022-08-02T13:23:21.872Z,31.61
2022-08-02T13:27:27.484Z,32.76
2022-08-02T13:31:36.532Z,31.52
2022-08-02T13:35:39.960Z,31.95
2022-08-02T13:39:55.364Z,31.81
2022-08-02T13:44:10.771Z,31.97
2022-08-02T13:48:17.120Z,32.65
2022-08-02T13:52:21.703Z,31.64
2022-08-02T13:56:36.079Z,30.88
2022-08-02T14:00:40.912Z,32.19
2022-08-02T14:04:46.815Z,32.62
2022-08-02T14:08:49.934Z,31.82
2022-08-02T14:12:56.322Z,31.68
2022-08-02T14:17:01.970Z,32.70
2022-08-02T14:21:05.349Z,32.02
2022-08-02T14:25:09.580Z,32.05
2022-08-02T14:29:13.052Z,31.41
2022-08-02T14:33:18.978Z,32.40
2022-08-02T14:37:22.053Z,32.18
2022-08-02T14:41:25.266Z,32.01
2022-08-02T14:45:39.808Z,33.20
2022-08-02T14:49:49.577Z,32.96
2022-08-02T14:54:02.702Z,30.92
2022-08-02T14:58:06.557Z,32.39
2022-08-02T15:02:10.679Z,32.50
2022-08-02T15:06:18.122Z,32.27
2022-08-02T15:10:22.341Z,32.00
2022-08-02T15:14:26.359Z,32.22
2022-08-02T15:18:29.721Z,32.75
2022-08-02T15:22:34.569Z,31.97
2022-08-02T15:26:37.935Z,32.53
2022-08-02T15:30:41.119Z,32.38
2022-08-02T15:34:44.286Z,33.27
2022-08-02T15:38:48.758Z,34.16
2022-08-02T15:42:53.688Z,33.61
2022-08-02T15:46:56.828Z,32.76
2022-08-02T15:51:00.266Z,32.10
2022-08-02T15:55:06.913Z,32.58
2022-08-02T15:59:10.606Z,33.13
2022-08-02T16:03:13.725Z,32.44
2022-08-02T16:07:16.803Z,31.63
2022-08-02T16:11:21.277Z,31.43
2022-08-02T16:15:24.355Z,32.31
2022-08-02T16:19:46.729Z,33.26
2022-08-02T16:24:02.022Z,33.06
2022-08-02T16:28:08.209Z,32.29
2022-08-02T16:32:12.317Z,32.42
2022-08-02T16:36:16.050Z,32.42
2022-08-02T16:40:23.302Z,31.98
2022-08-02T16:44:30.225Z,31.96
2022-08-02T16:48:33.866Z,32.13
2022-08-02T16:52:37.183Z,32.35
2022-08-02T16:56:42.579Z,31.59
2022-08-02T17:00:47.841Z,31.39
2022-08-02T17:04:51.083Z,31.73
2022-08-02T17:08:55.536Z,31.82
2022-08-02T17:13:11.454Z,31.58
2022-08-02T17:17:16.818Z,31.44
2022-08-02T17:21:24.484Z,31.37
2022-08-02T17:25:27.612Z,31.67
2022-08-02T17:29:35.041Z,31.18
2022-08-02T17:33:39.689Z,31.17
2022-08-02T17:37:42.936Z,31.70
2022-08-02T17:41:58.056Z,32.05
2022-08-02T17:46:02.590Z,31.61
2022-08-02T17:50:09.288Z,31.60
2022-08-02T17:54:20.556Z,30.97
2022-08-02T17:58:24.655Z,30.70
2022-08-02T18:02:37.883Z,30.62
2022-08-02T18:06:47.160Z,30.62
2022-08-02T18:10:50.782Z,31.30
2022-08-02T18:14:55.551Z,30.40
2022-08-02T18:18:58.684Z,29.91
2022-08-02T18:23:11.079Z,30.22
2022-08-02T18:27:16.860Z,29.70
2022-08-02T18:31:22.799Z,29.93
2022-08-02T18:35:26.306Z,29.69
2022-08-02T18:39:34.262Z,29.58
2022-08-02T18:43:43.684Z,29.23
2022-08-02T18:47:50.861Z,29.36
2022-08-02T18:51:54.261Z,29.00
2022-08-02T18:56:00.297Z,28.73
2022-08-02T19:00:10.096Z,28.36
2022-08-02T19:04:26.784Z,28.03
2022-08-02T19:08:30.991Z,27.70
2022-08-02T19:12:36.534Z,27.33
2022-08-02T19:16:40.004Z,27.05
2022-08-02T19:20:48.018Z,26.84
2022-08-02T19:24:56.463Z,26.51
2022-08-02T19:29:08.511Z,26.28
2022-08-02T19:33:25.025Z,26.07
2022-08-02T19:37:38.679Z,25.84
2022-08-02T19:41:43.805Z,25.59
2022-08-02T19:45:50.189Z,25.40
2022-08-02T19:49:54.415Z,25.20
2022-08-02T19:53:58.593Z,24.97
2022-08-02T19:58:04.460Z,24.70
2022-08-02T20:02:08.870Z,24.44
2022-08-02T20:06:14.624Z,24.18
2022-08-02T20:10:24.830Z,23.98
2022-08-02T20:14:28.120Z,23.80
2022-08-02T20:18:33.750Z,23.61
2022-08-02T20:22:58.579Z,23.54
2022-08-02T20:27:02.672Z,23.45
2022-08-02T20:31:08.818Z,23.49
2022-08-02T20:35:13.518Z,23.47
2022-08-02T20:39:21.992Z,23.41
2022-08-02T20:43:31.136Z,23.33
2022-08-02T20:47:39.251Z,23.22
2022-08-02T20:51:44.695Z,23.04
2022-08-02T20:55:49.661Z,23.03
2022-08-02T20:59:52.601Z,22.71
2022-08-02T21:08:21.822Z,22.70
2022-08-02T21:12:29.766Z,22.59
2022-08-02T21:16:33.331Z,22.50
2022-08-02T21:20:37.202Z,22.50
2022-08-02T21:24:41.558Z,22.29
2022-08-02T21:28:45.197Z,22.04
2022-08-02T21:32:50.659Z,21.95
2022-08-02T21:36:54.791Z,21.86
2022-08-02T21:40:59.243Z,21.75
2022-08-02T21:45:02.236Z,21.95
2022-08-02T21:49:41.195Z,21.92
2022-08-02T21:58:09.507Z,21.82
2022-08-02T22:02:13.399Z,21.81
2022-08-02T22:06:16.802Z,21.76
2022-08-02T22:10:21.647Z,21.51
2022-08-02T22:14:26.093Z,21.32
2022-08-02T22:18:31.252Z,21.35
2022-08-02T22:22:36.727Z,21.39
2022-08-02T22:26:41.004Z,21.37
2022-08-02T22:30:45.971Z,21.26
2022-08-02T22:34:55.739Z,21.03
2022-08-02T22:38:59.147Z,20.99
2022-08-02T22:43:02.168Z,20.78
2022-08-02T22:47:14.826Z,20.87
2022-08-02T22:51:18.622Z,20.96
2022-08-02T22:55:22.063Z,20.89
2022-08-02T22:59:03.801Z,21.89
2022-08-02T22:59:05.603Z,22.62
2022-08-02T22:59:36.407Z,20.80
2022-08-02T23:03:44.223Z,20.81
2022-08-02T23:07:47.185Z,20.82
2022-08-02T23:11:50.186Z,20.67
2022-08-02T23:16:10.632Z,20.45
2022-08-02T23:20:15.364Z,20.36
2022-08-02T23:24:18.770Z,20.48
2022-08-02T23:28:21.769Z,20.47
2022-08-02T23:32:25.908Z,20.47
2022-08-02T23:36:30.708Z,20.43
2022-08-02T23:40:40.223Z,20.23
2022-08-02T23:44:44.002Z,20.15
2022-08-02T23:48:47.087Z,20.09
2022-08-02T23:52:51.446Z,20.04
2022-08-02T23:56:54.665Z,19.99
